createdAt,value
2022-08-22T00:00:13.460Z,6.40
2022-08-22T00:05:29.682Z,6.22
2022-08-22T00:10:42.662Z,6.95
2022-08-22T00:15:53.709Z,6.35
2022-08-22T00:21:06.635Z,10.38
2022-08-22T00:26:17.455Z,7.07
2022-08-22T00:31:27.826Z,8.50
2022-08-22T00:36:39.988Z,6.45
2022-08-22T00:42:31.708Z,7.20
2022-08-22T00:48:00.441Z,7.03
2022-08-22T00:53:24.141Z,8.13
2022-08-22T00:58:57.507Z,6.07
2022-08-22T01:04:33.177Z,6.57
2022-08-22T01:10:19.220Z,5.30
2022-08-22T01:15:25.553Z,6.53
2022-08-22T01:21:11.755Z,6.43
2022-08-22T01:27:00.556Z,3.85
2022-08-22T01:32:43.056Z,4.47
2022-08-22T01:38:30.115Z,5.80
2022-08-22T01:44:00.562Z,5.78
2022-08-22T01:49:12.299Z,4.82
2022-08-22T01:54:28.340Z,4.53
2022-08-22T01:59:42.588Z,5.20
2022-08-22T02:05:01.768Z,5.15
2022-08-22T02:10:22.864Z,4.85
2022-08-22T02:15:48.610Z,4.90
2022-08-22T02:21:04.704Z,7.35
2022-08-22T02:26:17.167Z,6.13
2022-08-22T02:31:28.077Z,5.97
2022-08-22T02:36:44.872Z,5.53
2022-08-22T02:41:55.578Z,6.88
2022-08-22T02:47:08.341Z,6.03
2022-08-22T02:52:18.689Z,6.40
2022-08-22T02:57:33.864Z,8.48
2022-08-22T03:03:00.304Z,6.05
2022-08-22T03:08:09.397Z,5.72
2022-08-22T03:13:30.190Z,6.50
2022-08-22T03:18:45.781Z,3.95
2022-08-22T03:23:54.167Z,5.05
2022-08-22T03:29:10.903Z,3.58
2022-08-22T03:34:24.412Z,3.20
2022-08-22T03:39:48.721Z,4.85
2022-08-22T03:45:35.062Z,5.03
2022-08-22T03:51:01.839Z,4.85
2022-08-22T03:56:38.337Z,7.40
2022-08-22T04:02:24.780Z,6.55
2022-08-22T04:08:12.967Z,5.10
2022-08-22T04:13:32.715Z,6.05
2022-08-22T04:19:16.513Z,4.38
2022-08-22T04:24:45.125Z,3.72
2022-08-22T04:29:59.988Z,5.30
2022-08-22T04:35:10.164Z,3.90
2022-08-22T04:40:23.163Z,3.92
2022-08-22T04:45:32.209Z,4.65
2022-08-22T04:50:52.077Z,4.68
2022-08-22T04:56:07.826Z,5.70
2022-08-22T05:01:21.463Z,4.57
2022-08-22T05:06:29.015Z,4.63
2022-08-22T05:11:34.410Z,4.28
2022-08-22T05:16:41.877Z,6.03
2022-08-22T05:21:50.934Z,4.60
2022-08-22T05:26:56.439Z,5.13
2022-08-22T05:32:02.759Z,5.75
2022-08-22T05:37:12.211Z,4.47
2022-08-22T05:42:19.625Z,4.00
2022-08-22T05:47:25.321Z,5.35
2022-08-22T05:52:45.033Z,3.17
2022-08-22T05:57:53.358Z,3.75
2022-08-22T06:03:06.402Z,3.80
2022-08-22T06:08:18.762Z,4.03
2022-08-22T06:13:26.788Z,5.57
2022-08-22T06:18:33.799Z,4.97
2022-08-22T06:23:41.882Z,6.32
2022-08-22T06:28:55.321Z,4.68
2022-08-22T06:34:04.482Z,4.97
2022-08-22T06:39:18.668Z,5.95
2022-08-22T06:44:25.556Z,7.32
2022-08-22T06:49:29.579Z,5.13
2022-08-22T06:54:40.934Z,4.53
2022-08-22T06:59:44.787Z,5.75
2022-08-22T07:04:50.016Z,6.45
2022-08-22T07:09:57.551Z,7.80
2022-08-22T07:15:09.816Z,6.60
2022-08-22T07:20:25.644Z,4.60
2022-08-22T07:25:32.368Z,4.05
2022-08-22T07:30:46.957Z,3.40
2022-08-22T07:35:56.921Z,2.40
2022-08-22T07:41:10.285Z,2.30
2022-08-22T07:46:21.316Z,2.17
2022-08-22T07:51:29.320Z,2.30
2022-08-22T07:56:38.566Z,4.03
2022-08-22T08:01:47.064Z,2.38
2022-08-22T08:06:52.733Z,1.83
2022-08-22T08:11:56.826Z,1.70
2022-08-22T08:17:06.013Z,2.80
2022-08-22T08:22:12.938Z,2.08
2022-08-22T08:27:37.427Z,1.90
2022-08-22T08:32:40.959Z,1.77
2022-08-22T08:37:46.020Z,1.70
2022-08-22T08:43:24.929Z,2.22
2022-08-22T08:48:56.820Z,1.45
2022-08-22T08:54:24.142Z,1.52
2022-08-22T08:59:44.435Z,2.30
2022-08-22T09:05:20.412Z,2.08
2022-08-22T09:10:39.736Z,1.92
2022-08-22T09:16:05.071Z,2.13
2022-08-22T09:21:31.351Z,1.50
2022-08-22T09:26:48.210Z,1.63
2022-08-22T09:32:04.132Z,1.55
2022-08-22T09:37:17.731Z,1.10
2022-08-22T09:42:25.686Z,1.20
2022-08-22T09:47:35.661Z,1.10
2022-08-22T09:53:04.932Z,1.27
2022-08-22T09:58:17.422Z,2.03
2022-08-22T10:03:32.668Z,1.13
2022-08-22T10:08:52.659Z,1.30
2022-08-22T10:14:02.280Z,0.90
2022-08-22T10:19:17.058Z,1.23
2022-08-22T10:24:32.318Z,1.45
2022-08-22T10:30:05.372Z,2.40
2022-08-22T10:35:21.580Z,1.60
2022-08-22T10:40:33.366Z,0.93
2022-08-22T10:45:41.709Z,0.82
2022-08-22T10:50:58.141Z,0.50
2022-08-22T10:56:16.803Z,0.60
2022-08-22T11:01:37.980Z,0.50
2022-08-22T11:06:54.603Z,0.80
2022-08-22T11:12:04.398Z,0.57
2022-08-22T11:17:29.911Z,0.50
2022-08-22T11:22:58.175Z,0.65
2022-08-22T11:29:07.793Z,0.47
2022-08-22T11:34:28.888Z,1.02
2022-08-22T11:39:38.962Z,0.52
2022-08-22T11:44:51.191Z,1.35
2022-08-22T11:50:00.844Z,0.80
2022-08-22T11:55:21.458Z,1.25
2022-08-22T12:00:33.820Z,0.50
2022-08-22T12:05:44.544Z,0.50
2022-08-22T12:10:55.535Z,1.23
2022-08-22T12:16:14.969Z,3.53
2022-08-22T12:22:01.773Z,1.13
2022-08-22T12:27:48.070Z,0.68
2022-08-22T12:33:27.970Z,0.73
2022-08-22T12:38:47.522Z,1.98
2022-08-22T12:44:03.579Z,0.60
2022-08-22T12:49:52.305Z,0.65
2022-08-22T12:55:19.480Z,0.50
2022-08-22T13:00:32.088Z,0.50
2022-08-22T13:05:40.936Z,1.50
2022-08-22T13:10:51.870Z,0.60
2022-08-22T13:16:04.661Z,0.40
2022-08-22T13:21:15.038Z,1.25
2022-08-22T13:26:33.195Z,0.45
2022-08-22T13:31:43.733Z,0.68
2022-08-22T13:36:55.553Z,1.77
2022-08-22T13:42:40.794Z,2.33
2022-08-22T13:48:13.943Z,0.65
2022-08-22T13:53:36.509Z,3.25
2022-08-22T13:58:53.639Z,0.77
2022-08-22T14:04:28.977Z,1.23
2022-08-22T14:09:57.324Z,1.15
2022-08-22T14:15:02.197Z,2.30
2022-08-22T14:25:50.335Z,2.05
2022-08-22T14:31:00.751Z,2.00
2022-08-22T14:36:37.416Z,0.85
2022-08-22T14:41:56.593Z,1.05
2022-08-22T14:47:32.306Z,2.45
2022-08-22T14:52:46.177Z,1.55
2022-08-22T14:58:06.039Z,1.60
2022-08-22T15:03:17.412Z,1.13
2022-08-22T15:08:32.993Z,1.70
2022-08-22T15:13:44.389Z,0.88
2022-08-22T15:18:59.791Z,2.78
2022-08-22T15:30:48.321Z,1.55
2022-08-22T15:36:33.110Z,2.10
2022-08-22T15:42:19.963Z,2.90
2022-08-22T15:47:44.547Z,1.50
2022-08-22T15:53:08.634Z,1.75
2022-08-22T15:58:31.122Z,1.15
2022-08-22T16:03:38.332Z,1.33
2022-08-22T16:09:06.256Z,1.20
2022-08-22T16:14:55.157Z,0.80
2022-08-22T16:20:47.993Z,1.95
2022-08-22T16:32:32.254Z,2.15
2022-08-22T16:37:50.785Z,1.17
2022-08-22T16:43:32.555Z,1.15
2022-08-22T16:48:59.106Z,1.92
2022-08-22T16:54:44.276Z,0.80
2022-08-22T17:00:23.040Z,0.80
2022-08-22T17:05:54.995Z,1.20
2022-08-22T17:11:48.818Z,1.52
2022-08-22T17:23:27.347Z,0.90
2022-08-22T17:28:55.998Z,0.70
2022-08-22T17:34:47.557Z,0.98
2022-08-22T17:46:45.801Z,1.70
2022-08-22T17:52:44.302Z,2.13
2022-08-22T17:58:31.612Z,1.00
2022-08-22T18:03:42.939Z,2.63
2022-08-22T18:14:35.495Z,0.88
2022-08-22T18:20:04.503Z,1.20
2022-08-22T18:25:38.082Z,2.95
2022-08-22T18:31:10.636Z,3.72
2022-08-22T18:36:17.256Z,3.00
2022-08-22T18:41:32.181Z,1.45
2022-08-22T18:46:51.655Z,1.55
2022-08-22T18:52:16.077Z,1.33
2022-08-22T18:57:42.952Z,2.22
2022-08-22T19:03:04.853Z,2.58
2022-08-22T19:08:53.503Z,2.10
2022-08-22T19:14:22.354Z,2.17
2022-08-22T19:19:53.460Z,1.60
2022-08-22T19:25:14.616Z,3.13
2022-08-22T19:30:42.952Z,1.70
2022-08-22T19:36:02.216Z,1.67
2022-08-22T19:41:04.978Z,1.60
2022-08-22T19:46:12.260Z,1.58
2022-08-22T19:51:26.123Z,1.30
2022-08-22T19:56:40.468Z,2.63
2022-08-22T20:02:03.345Z,1.38
2022-08-22T20:07:17.642Z,1.30
2022-08-22T20:12:31.036Z,1.48
2022-08-22T20:18:11.616Z,4.05
2022-08-22T20:23:15.731Z,1.35
2022-08-22T20:28:32.340Z,1.67
2022-08-22T20:33:40.225Z,2.35
2022-08-22T20:39:01.828Z,1.98
2022-08-22T20:44:13.405Z,1.70
2022-08-22T20:49:20.858Z,2.75
2022-08-22T20:54:25.475Z,4.63
2022-08-22T20:59:35.816Z,2.17
2022-08-22T21:04:45.562Z,3.17
2022-08-22T21:10:16.687Z,1.65
2022-08-22T21:15:31.818Z,1.75
2022-08-22T21:20:38.700Z,2.17
2022-08-22T21:25:55.070Z,2.42
2022-08-22T21:30:59.507Z,3.88
2022-08-22T21:36:03.139Z,2.78
2022-08-22T21:41:05.533Z,2.55
2022-08-22T21:46:10.317Z,1.73
2022-08-22T21:51:31.897Z,1.60
2022-08-22T21:56:33.997Z,1.77
2022-08-22T22:01:36.113Z,1.60
2022-08-22T22:06:49.491Z,1.80
2022-08-22T22:11:51.599Z,2.45
2022-08-22T22:16:56.798Z,3.05
2022-08-22T22:22:00.252Z,2.38
2022-08-22T22:27:05.667Z,1.83
2022-08-22T22:32:09.170Z,2.17
2022-08-22T22:37:15.884Z,1.98
2022-08-22T22:42:20.277Z,1.95
2022-08-22T22:47:31.990Z,2.10
2022-08-22T22:52:40.900Z,2.22
2022-08-22T22:57:43.173Z,1.60
2022-08-22T23:02:49.453Z,2.80
2022-08-22T23:07:55.929Z,2.63
2022-08-22T23:13:05.969Z,1.70
2022-08-22T23:18:09.761Z,1.77
2022-08-22T23:23:13.214Z,2.30
2022-08-22T23:28:19.981Z,3.45
2022-08-22T23:33:22.113Z,3.28
2022-08-22T23:38:25.607Z,2.28
2022-08-22T23:43:27.714Z,2.60
2022-08-22T23:48:30.055Z,2.83
2022-08-22T23:53:34.622Z,2.40
2022-08-22T23:58:36.769Z,2.70
